Terminal Aerodrome Forecast
Issued by NWS

Current Version | Previous Version | Text Only | Print | Product List | Glossary Off
Versions: 1 2 3 4 5 6 7 8 9 10 11 12 13 14 15 16 17 18 19 20 21 22 23

000
FTUS41 KRNK 161120
TAFLWB
TAF
KLWB 161120Z 1612/1712 00000KT 4SM -DZ BR SCT002 OVC011
      TEMPO 1612/1614 2SM BR OVC002
     FM161400 VRB03KT 1SM -DZ BR OVC008
     FM161600 VRB03KT P6SM OVC008
     FM170800 00000KT P6SM VCSH OVC008=

USA.gov is the U.S. government's official web portal to all federal, state and local government web resources and services.